createdAt,value
2019-03-06T00:02:07.298Z,100415.14
2019-03-06T00:04:38.228Z,100413.45
2019-03-06T00:07:08.992Z,100410.67
2019-03-06T00:09:39.872Z,100382.56
2019-03-06T00:12:10.533Z,100383.80
2019-03-06T00:14:42.769Z,100401.81
2019-03-06T00:17:14.668Z,100401.81
2019-03-06T00:19:45.527Z,100395.95
2019-03-06T00:22:16.218Z,100402.06
2019-03-06T00:24:47.548Z,100362.05
2019-03-06T00:27:18.537Z,100365.86
2019-03-06T00:29:49.416Z,100373.77
2019-03-06T00:32:20.125Z,100373.77
2019-03-06T00:34:51.737Z,100369.45
2019-03-06T00:37:22.269Z,100365.90
2019-03-06T00:40:00.506Z,100370.90
2019-03-06T00:42:34.467Z,100366.78
2019-03-06T00:45:05.435Z,100366.22
2019-03-06T00:47:36.148Z,100362.41
2019-03-06T00:50:07.266Z,100358.04
2019-03-06T00:52:37.977Z,100348.17
2019-03-06T00:55:08.842Z,100338.19
2019-03-06T00:57:40.039Z,100339.00
2019-03-06T01:00:12.491Z,100329.03
2019-03-06T01:02:43.826Z,100330.57
2019-03-06T01:05:14.720Z,100332.49
2019-03-06T01:07:45.625Z,100330.91
2019-03-06T01:10:16.844Z,100336.02
2019-03-06T01:12:47.800Z,100338.48
2019-03-06T01:15:18.848Z,100340.00
2019-03-06T01:17:50.248Z,100347.39
2019-03-06T01:20:21.814Z,100344.33
2019-03-06T01:22:53.781Z,100340.78
2019-03-06T01:25:24.564Z,100344.59
2019-03-06T01:27:55.311Z,100342.93
2019-03-06T01:30:27.284Z,100335.85
2019-03-06T01:33:09.342Z,100329.95
2019-03-06T01:35:46.961Z,100329.95
2019-03-06T01:38:36.529Z,100332.26
2019-03-06T01:41:48.938Z,100328.91
2019-03-06T01:44:27.059Z,100328.91
2019-03-06T01:47:18.064Z,100330.22
2019-03-06T01:49:48.940Z,100316.28
2019-03-06T01:52:20.723Z,100330.22
2019-03-06T01:54:51.318Z,100321.14
2019-03-06T01:57:22.197Z,100321.14
2019-03-06T01:59:53.133Z,100325.87
2019-03-06T02:02:24.553Z,100328.73
2019-03-06T02:04:56.776Z,100329.61
2019-03-06T02:07:27.883Z,100337.41
2019-03-06T02:09:59.099Z,100337.41
2019-03-06T02:12:29.797Z,100317.67
2019-03-06T02:15:00.557Z,100329.33
2019-03-06T02:17:31.347Z,100332.69
2019-03-06T02:20:03.132Z,100335.59
2019-03-06T02:22:33.876Z,100339.03
2019-03-06T02:25:04.664Z,100339.03
2019-03-06T02:27:35.343Z,100330.08
2019-03-06T02:30:08.850Z,100329.07
2019-03-06T02:32:39.597Z,100329.07
2019-03-06T02:35:30.290Z,100327.97
2019-03-06T02:38:00.938Z,100352.97
2019-03-06T02:40:31.764Z,100355.77
2019-03-06T02:43:02.714Z,100357.62
2019-03-06T02:45:34.509Z,100357.62
2019-03-06T02:48:05.287Z,100356.88
2019-03-06T02:50:36.241Z,100330.63
2019-03-06T02:53:07.967Z,100327.64
2019-03-06T02:55:38.598Z,100327.18
2019-03-06T02:58:24.214Z,100315.35
2019-03-06T03:01:16.652Z,100299.52
2019-03-06T03:04:18.418Z,100324.41
2019-03-06T03:06:52.940Z,100324.41
2019-03-06T03:09:23.751Z,100327.61
2019-03-06T03:11:54.896Z,100340.53
2019-03-06T03:14:25.584Z,100342.98
2019-03-06T03:16:57.186Z,100342.98
2019-03-06T03:19:27.919Z,100346.41
2019-03-06T03:22:00.021Z,100354.03
2019-03-06T03:24:30.866Z,100349.30
2019-03-06T03:27:02.193Z,100338.63
2019-03-06T03:29:32.953Z,100338.63
2019-03-06T03:32:04.608Z,100346.98
2019-03-06T03:34:37.830Z,100352.84
2019-03-06T03:37:08.643Z,100350.44
2019-03-06T03:39:42.161Z,100346.92
2019-03-06T03:42:12.829Z,100346.92
2019-03-06T03:44:43.548Z,100352.06
2019-03-06T03:47:14.738Z,100355.57
2019-03-06T03:49:45.575Z,100353.35
2019-03-06T03:52:16.166Z,100353.35
2019-03-06T03:54:47.393Z,100361.16
2019-03-06T03:57:18.277Z,100364.80
2019-03-06T03:59:48.870Z,100354.38
2019-03-06T04:02:20.106Z,100370.11
2019-03-06T04:04:50.816Z,100370.11
2019-03-06T04:07:22.122Z,100362.94
2019-03-06T04:09:53.992Z,100367.86
2019-03-06T04:12:26.043Z,100366.55
2019-03-06T04:14:56.795Z,100383.01
2019-03-06T04:17:27.935Z,100383.01
2019-03-06T04:20:00.546Z,100396.59
2019-03-06T04:22:31.635Z,100396.59
2019-03-06T04:25:02.247Z,100392.97
2019-03-06T04:27:32.789Z,100392.97
2019-03-06T04:30:04.201Z,100391.12
2019-03-06T04:32:35.103Z,100386.19
2019-03-06T04:35:05.988Z,100392.61
2019-03-06T04:37:36.904Z,100385.17
2019-03-06T04:40:07.682Z,100371.30
2019-03-06T04:42:38.503Z,100374.85
2019-03-06T04:45:10.617Z,100374.85
2019-03-06T04:47:41.774Z,100374.46
2019-03-06T04:50:12.564Z,100382.93
2019-03-06T04:52:43.634Z,100374.56
2019-03-06T04:55:14.445Z,100374.56
2019-03-06T04:57:45.564Z,100385.92
2019-03-06T05:00:16.656Z,100382.92
2019-03-06T05:02:47.264Z,100382.92
2019-03-06T05:05:17.902Z,100392.61
2019-03-06T05:07:48.497Z,100384.98
2019-03-06T05:10:19.409Z,100384.98
2019-03-06T05:12:50.093Z,100388.89
2019-03-06T05:15:21.598Z,100387.22
2019-03-06T05:18:01.038Z,100387.22
2019-03-06T05:20:32.019Z,100388.16
2019-03-06T05:23:02.722Z,100407.39
2019-03-06T05:25:35.983Z,100419.78
2019-03-06T05:28:06.409Z,100419.78
2019-03-06T05:30:37.291Z,100423.41
2019-03-06T05:33:08.333Z,100413.54
2019-03-06T05:36:13.885Z,100409.53
2019-03-06T05:39:09.626Z,100404.26
2019-03-06T05:41:40.633Z,100404.26
2019-03-06T05:44:11.392Z,100417.30
2019-03-06T05:46:42.221Z,100417.30
2019-03-06T05:49:13.096Z,100433.95
2019-03-06T05:51:44.618Z,100433.95
2019-03-06T05:54:15.652Z,100425.38
2019-03-06T05:56:49.410Z,100425.38
2019-03-06T05:59:20.271Z,100438.77
2019-03-06T06:01:51.346Z,100436.31
2019-03-06T06:04:22.090Z,100435.70
2019-03-06T06:06:52.817Z,100437.09
2019-03-06T06:09:23.745Z,100445.06
2019-03-06T06:11:54.599Z,100452.96
2019-03-06T06:14:25.921Z,100453.57
2019-03-06T06:16:57.071Z,100458.33
2019-03-06T06:19:27.830Z,100461.67
2019-03-06T06:22:10.551Z,100472.58
2019-03-06T06:24:43.107Z,100472.45
2019-03-06T06:27:14.408Z,100483.66
2019-03-06T06:29:45.593Z,100488.55
2019-03-06T06:32:16.571Z,100484.09
2019-03-06T06:34:47.128Z,100478.90
2019-03-06T06:37:17.915Z,100489.62
2019-03-06T06:39:48.570Z,100492.33
2019-03-06T06:42:19.835Z,100496.74
2019-03-06T06:44:50.600Z,100498.92
2019-03-06T06:47:21.174Z,100502.56
2019-03-06T06:49:52.080Z,100500.54
2019-03-06T06:52:47.485Z,100499.81
2019-03-06T06:55:34.850Z,100502.09
2019-03-06T06:58:31.617Z,100503.15
2019-03-06T07:01:35.115Z,100509.24
2019-03-06T07:04:55.669Z,100511.61
2019-03-06T07:07:45.256Z,100508.83
2019-03-06T07:10:33.597Z,100507.74
2019-03-06T07:13:18.772Z,100509.98
2019-03-06T07:16:07.014Z,100525.43
2019-03-06T07:18:43.797Z,100518.41
2019-03-06T07:21:33.469Z,100523.01
2019-03-06T07:24:25.598Z,100525.70
2019-03-06T07:27:14.578Z,100536.11
2019-03-06T07:29:52.334Z,100536.99
2019-03-06T07:32:37.838Z,100537.95
2019-03-06T07:36:08.494Z,100536.80
2019-03-06T07:38:39.676Z,100538.62
2019-03-06T07:41:26.141Z,100536.99
2019-03-06T07:44:07.317Z,100539.12
2019-03-06T07:46:59.776Z,100536.34
2019-03-06T07:49:45.716Z,100542.86
2019-03-06T07:52:30.918Z,100547.52
2019-03-06T07:55:13.039Z,100542.66
2019-03-06T07:58:20.015Z,100542.55
2019-03-06T08:00:50.882Z,100545.98
2019-03-06T08:03:38.299Z,100538.60
2019-03-06T08:06:10.445Z,100546.41
2019-03-06T08:08:41.110Z,100538.36
2019-03-06T08:11:20.612Z,100537.63
2019-03-06T08:14:07.478Z,100532.38
2019-03-06T08:16:53.858Z,100535.89
2019-03-06T08:19:48.645Z,100533.75
2019-03-06T08:22:51.234Z,100533.33
2019-03-06T08:25:32.307Z,100526.94
2019-03-06T08:28:03.085Z,100529.39
2019-03-06T08:30:37.777Z,100526.33
2019-03-06T08:33:17.713Z,100525.75
2019-03-06T08:35:41.463Z,100528.37
2019-03-06T08:38:12.315Z,100527.11
2019-03-06T08:40:44.192Z,100529.03
2019-03-06T08:43:14.841Z,100523.21
2019-03-06T08:46:01.029Z,100524.30
2019-03-06T08:48:52.491Z,100529.69
2019-03-06T08:51:43.335Z,100525.02
2019-03-06T08:54:36.094Z,100517.57
2019-03-06T08:57:18.710Z,100521.94
2019-03-06T09:00:10.442Z,100515.33
2019-03-06T09:02:52.947Z,100510.54
2019-03-06T09:05:32.086Z,100516.20
2019-03-06T09:08:28.100Z,100510.55
2019-03-06T09:11:16.447Z,100516.71
2019-03-06T09:13:58.757Z,100521.05
2019-03-06T09:16:48.537Z,100522.05
2019-03-06T09:19:38.009Z,100518.45
2019-03-06T09:22:18.883Z,100518.04
2019-03-06T09:24:59.462Z,100513.66
2019-03-06T09:27:43.201Z,100519.39
2019-03-06T09:30:41.804Z,100528.13
2019-03-06T09:33:30.435Z,100535.80
2019-03-06T09:36:26.264Z,100539.75
2019-03-06T09:39:15.026Z,100537.24
2019-03-06T09:42:10.946Z,100533.77
2019-03-06T09:45:00.332Z,100529.45
2019-03-06T09:47:45.301Z,100526.52
2019-03-06T09:50:30.360Z,100524.06
2019-03-06T09:53:18.796Z,100527.62
2019-03-06T09:56:07.573Z,100516.28
2019-03-06T09:59:09.637Z,100510.16
2019-03-06T10:02:14.276Z,100519.16
2019-03-06T10:04:51.557Z,100517.39
2019-03-06T10:07:33.860Z,100514.93
2019-03-06T10:10:16.196Z,100512.13
2019-03-06T10:13:10.345Z,100509.84
2019-03-06T10:16:09.243Z,100510.36
2019-03-06T10:18:52.482Z,100517.09
2019-03-06T10:21:23.168Z,100510.34
2019-03-06T10:23:55.303Z,100504.11
2019-03-06T10:26:26.214Z,100504.89
2019-03-06T10:28:57.066Z,100502.52
2019-03-06T10:31:27.738Z,100505.57
2019-03-06T10:33:58.560Z,100500.53
2019-03-06T10:36:29.937Z,100491.05
2019-03-06T10:39:00.962Z,100485.44
2019-03-06T10:41:33.133Z,100481.69
2019-03-06T10:44:03.919Z,100478.49
2019-03-06T10:46:35.106Z,100470.02
2019-03-06T10:49:07.885Z,100470.34
2019-03-06T10:51:38.566Z,100474.16
2019-03-06T10:54:09.954Z,100443.15
2019-03-06T10:56:41.455Z,100464.75
2019-03-06T10:59:12.675Z,100464.16
2019-03-06T11:01:45.200Z,100465.22
2019-03-06T11:04:33.762Z,100461.88
2019-03-06T11:07:05.456Z,100462.24
2019-03-06T11:09:38.632Z,100463.09
2019-03-06T11:12:11.604Z,100457.97
2019-03-06T11:14:45.039Z,100464.84
2019-03-06T11:17:15.910Z,100464.25
2019-03-06T11:19:51.287Z,100470.91
2019-03-06T11:22:22.516Z,100462.69
2019-03-06T11:24:53.686Z,100462.72
2019-03-06T11:27:25.502Z,100470.63
2019-03-06T11:29:56.364Z,100471.94
2019-03-06T11:32:27.437Z,100469.05
2019-03-06T11:34:58.209Z,100470.39
2019-03-06T11:37:31.643Z,100464.63
2019-03-06T11:40:02.372Z,100470.35
2019-03-06T11:42:33.206Z,100474.53
2019-03-06T11:45:04.285Z,100470.44
2019-03-06T11:47:35.063Z,100468.29
2019-03-06T11:50:06.210Z,100459.23
2019-03-06T11:52:37.028Z,100459.23
2019-03-06T11:55:08.561Z,100445.98
2019-03-06T11:57:42.355Z,100446.77
2019-03-06T12:00:38.448Z,100447.17
2019-03-06T12:03:09.414Z,100446.26
2019-03-06T12:05:41.592Z,100447.75
2019-03-06T12:08:14.376Z,100451.28
2019-03-06T12:10:45.823Z,100438.47
2019-03-06T12:13:17.948Z,100441.70
2019-03-06T12:15:50.436Z,100441.84
2019-03-06T12:18:22.453Z,100429.77
2019-03-06T12:20:53.569Z,100434.31
2019-03-06T12:23:25.318Z,100429.28
2019-03-06T12:25:56.347Z,100424.77
2019-03-06T12:28:27.323Z,100433.03
2019-03-06T12:30:58.387Z,100424.30
2019-03-06T12:33:29.948Z,100428.79
2019-03-06T12:36:00.607Z,100419.05
2019-03-06T12:38:31.379Z,100414.23
2019-03-06T12:41:01.972Z,100406.96
2019-03-06T12:43:33.259Z,100408.09
2019-03-06T12:46:23.463Z,100409.27
2019-03-06T12:49:01.125Z,100410.92
2019-03-06T12:51:32.708Z,100415.34
2019-03-06T12:54:03.548Z,100410.37
2019-03-06T12:56:34.372Z,100414.30
2019-03-06T12:59:05.506Z,100416.45
2019-03-06T13:01:36.258Z,100412.89
2019-03-06T13:04:07.189Z,100407.13
2019-03-06T13:06:38.260Z,100405.00
2019-03-06T13:09:16.529Z,100396.53
2019-03-06T13:11:47.422Z,100402.97
2019-03-06T13:14:17.952Z,100404.88
2019-03-06T13:16:48.887Z,100395.69
2019-03-06T13:19:19.912Z,100405.88
2019-03-06T13:21:53.039Z,100395.94
2019-03-06T13:24:24.303Z,100394.52
2019-03-06T13:26:55.641Z,100393.41
2019-03-06T13:29:27.373Z,100397.80
2019-03-06T13:31:59.154Z,100405.13
2019-03-06T13:34:52.420Z,100402.78
2019-03-06T13:37:25.069Z,100409.60
2019-03-06T13:39:55.911Z,100401.98
2019-03-06T13:42:27.266Z,100422.49
2019-03-06T13:44:58.415Z,100466.35
2019-03-06T13:47:29.380Z,100503.93
2019-03-06T13:50:00.311Z,100553.80
2019-03-06T13:52:31.281Z,100550.53
2019-03-06T13:55:02.131Z,100598.93
2019-03-06T13:57:32.972Z,100598.08
2019-03-06T14:00:03.685Z,100629.52
2019-03-06T14:02:34.764Z,100651.24
2019-03-06T14:05:05.680Z,100624.67
2019-03-06T14:07:37.932Z,100598.09
2019-03-06T14:10:11.215Z,100598.09
2019-03-06T14:12:42.188Z,100591.61
2019-03-06T14:15:13.546Z,100591.61
2019-03-06T14:17:44.496Z,100580.68
2019-03-06T14:20:16.322Z,100580.68
2019-03-06T14:22:47.287Z,100582.11
2019-03-06T14:25:18.723Z,100577.26
2019-03-06T14:27:50.024Z,100565.98
2019-03-06T14:30:21.064Z,100568.59
2019-03-06T14:32:52.402Z,100569.63
2019-03-06T14:35:24.441Z,100571.59
2019-03-06T14:37:55.308Z,100571.59
2019-03-06T14:40:30.261Z,100574.18
2019-03-06T14:43:01.575Z,100560.13
2019-03-06T14:45:32.678Z,100560.13
2019-03-06T14:48:03.420Z,100563.77
2019-03-06T14:50:34.244Z,100561.30
2019-03-06T14:53:05.665Z,100553.92
2019-03-06T14:55:37.962Z,100556.47
2019-03-06T14:58:08.966Z,100554.27
2019-03-06T15:00:39.879Z,100563.09
2019-03-06T15:03:10.740Z,100568.36
2019-03-06T15:05:47.181Z,100568.92
2019-03-06T15:08:14.555Z,100573.05
2019-03-06T15:10:45.383Z,100574.73
2019-03-06T15:13:16.391Z,100577.27
2019-03-06T15:15:47.272Z,100584.31
2019-03-06T15:18:18.068Z,100587.73
2019-03-06T15:20:48.531Z,100581.06
2019-03-06T15:23:19.334Z,100578.70
2019-03-06T15:25:50.134Z,100583.88
2019-03-06T15:28:20.830Z,100595.18
2019-03-06T15:30:53.283Z,100592.77
2019-03-06T15:33:25.660Z,100592.23
2019-03-06T15:35:56.527Z,100600.35
2019-03-06T15:38:27.261Z,100605.66
2019-03-06T15:40:58.134Z,100606.41
2019-03-06T15:43:29.726Z,100612.94
2019-03-06T15:46:00.354Z,100618.91
2019-03-06T15:48:31.163Z,100617.97
2019-03-06T15:51:02.085Z,100623.38
2019-03-06T15:53:32.784Z,100629.06
2019-03-06T15:56:04.089Z,100632.49
2019-03-06T15:58:35.723Z,100628.22
2019-03-06T16:01:07.028Z,100635.27
2019-03-06T16:03:37.738Z,100641.33
2019-03-06T16:06:09.926Z,100636.20
2019-03-06T16:08:41.090Z,100652.77
2019-03-06T16:11:12.672Z,100641.71
2019-03-06T16:13:43.491Z,100657.00
2019-03-06T16:16:17.009Z,100662.72
2019-03-06T16:18:48.081Z,100682.50
2019-03-06T16:21:18.683Z,100728.48
2019-03-06T16:23:49.751Z,100760.89
2019-03-06T16:26:21.534Z,100790.27
2019-03-06T16:28:52.204Z,100822.55
2019-03-06T16:31:23.769Z,100869.92
2019-03-06T16:33:55.587Z,100752.72
2019-03-06T16:36:26.414Z,100752.72
2019-03-06T16:38:57.233Z,100750.13
2019-03-06T16:41:28.114Z,100747.86
2019-03-06T16:43:59.999Z,100755.91
2019-03-06T16:46:31.425Z,100770.22
2019-03-06T16:49:02.287Z,100764.48
2019-03-06T16:51:35.201Z,100771.14
2019-03-06T16:54:05.936Z,100773.95
2019-03-06T16:56:36.847Z,100773.30
2019-03-06T16:59:08.952Z,100773.83
2019-03-06T17:01:41.218Z,100774.28
2019-03-06T17:04:12.997Z,100776.95
2019-03-06T17:06:43.908Z,100783.98
2019-03-06T17:09:15.660Z,100787.36
2019-03-06T17:11:47.076Z,100789.88
2019-03-06T17:14:18.368Z,100790.20
2019-03-06T17:16:49.124Z,100798.75
2019-03-06T17:19:19.785Z,100803.74
2019-03-06T17:21:51.365Z,100809.31
2019-03-06T17:24:23.353Z,100812.37
2019-03-06T17:26:53.812Z,100818.27
2019-03-06T17:29:26.585Z,100819.94
2019-03-06T17:31:57.432Z,100826.12
2019-03-06T17:34:28.219Z,100826.12
2019-03-06T17:36:58.795Z,100839.45
2019-03-06T17:39:30.399Z,100840.75
2019-03-06T17:42:01.014Z,100842.95
2019-03-06T17:44:31.460Z,100844.86
2019-03-06T17:47:02.309Z,100852.91
2019-03-06T17:49:34.956Z,100869.75
2019-03-06T17:52:07.413Z,100882.69
2019-03-06T17:54:39.286Z,100882.69
2019-03-06T17:57:10.138Z,100887.36
2019-03-06T17:59:43.250Z,100901.39
2019-03-06T18:02:20.479Z,100901.39
2019-03-06T18:04:52.307Z,100907.13
2019-03-06T18:07:22.895Z,100918.84
2019-03-06T18:09:53.532Z,100922.63
2019-03-06T18:12:24.565Z,100926.13
2019-03-06T18:14:55.108Z,100936.27
2019-03-06T18:17:25.848Z,100936.27
2019-03-06T18:19:58.064Z,100952.27
2019-03-06T18:22:29.938Z,100954.83
2019-03-06T18:25:00.601Z,100954.75
2019-03-06T18:27:31.252Z,100961.78
2019-03-06T18:30:01.949Z,100967.76
2019-03-06T18:32:32.661Z,100964.93
2019-03-06T18:35:05.163Z,100964.93
2019-03-06T18:37:36.316Z,100975.80
2019-03-06T18:40:07.783Z,100986.36
2019-03-06T18:42:38.533Z,100984.44
2019-03-06T18:45:11.809Z,101000.20
2019-03-06T18:47:45.316Z,101003.73
2019-03-06T18:50:18.205Z,101006.23
2019-03-06T18:52:48.663Z,101016.39
2019-03-06T18:55:20.913Z,101016.37
2019-03-06T18:57:54.612Z,101024.88
2019-03-06T19:00:25.218Z,101026.17
2019-03-06T19:02:55.799Z,101031.75
2019-03-06T19:05:26.993Z,101035.06
2019-03-06T19:07:57.915Z,101042.45
2019-03-06T19:10:29.187Z,101051.94
2019-03-06T19:13:00.077Z,101062.34
2019-03-06T19:15:31.156Z,101061.30
2019-03-06T19:18:01.683Z,101067.35
2019-03-06T19:20:32.513Z,101070.87
2019-03-06T19:23:03.211Z,101070.95
2019-03-06T19:25:34.779Z,101076.75
2019-03-06T19:28:07.019Z,101081.95
2019-03-06T19:30:38.265Z,101080.34
2019-03-06T19:33:11.019Z,101084.43
2019-03-06T19:35:42.133Z,101085.88
2019-03-06T19:38:12.809Z,101085.89
2019-03-06T19:40:43.629Z,101098.52
2019-03-06T19:43:16.839Z,101098.25
2019-03-06T19:45:47.901Z,101094.75
2019-03-06T19:48:18.395Z,101095.86
2019-03-06T19:50:52.211Z,101097.81
2019-03-06T19:53:23.206Z,101103.20
2019-03-06T19:55:53.850Z,101101.33
2019-03-06T19:58:24.850Z,101108.28
2019-03-06T20:00:55.556Z,101110.88
2019-03-06T20:03:26.690Z,101108.14
2019-03-06T20:05:58.066Z,101122.71
2019-03-06T20:08:29.962Z,101118.67
2019-03-06T20:11:00.856Z,101118.53
2019-03-06T20:13:32.655Z,101119.39
2019-03-06T20:16:03.793Z,101125.48
2019-03-06T20:18:34.100Z,101122.27
2019-03-06T20:21:05.491Z,101124.59
2019-03-06T20:23:36.689Z,101129.45
2019-03-06T20:26:13.697Z,101141.25
2019-03-06T20:28:40.975Z,101145.48
2019-03-06T20:31:11.788Z,101136.70
2019-03-06T20:33:43.343Z,101136.83
2019-03-06T20:36:13.882Z,101139.91
2019-03-06T20:38:44.690Z,101139.70
2019-03-06T20:41:16.920Z,101143.25
2019-03-06T20:43:47.904Z,101148.00
2019-03-06T20:46:18.617Z,101153.20
2019-03-06T20:48:49.541Z,101146.83
2019-03-06T20:51:20.886Z,101148.70
2019-03-06T20:53:51.577Z,101151.81
2019-03-06T20:56:22.585Z,101149.50
2019-03-06T20:58:54.965Z,101145.45
2019-03-06T21:01:26.576Z,101144.41
2019-03-06T21:03:57.283Z,101139.66
2019-03-06T21:06:33.622Z,101140.44
2019-03-06T21:09:00.662Z,101137.63
2019-03-06T21:11:31.174Z,101139.17
2019-03-06T21:14:03.256Z,101146.39
2019-03-06T21:16:34.756Z,101148.48
2019-03-06T21:19:05.345Z,101150.80
2019-03-06T21:21:35.962Z,101160.33
2019-03-06T21:24:06.657Z,101165.59
2019-03-06T21:26:37.527Z,101170.53
2019-03-06T21:29:08.729Z,101167.27
2019-03-06T21:31:39.393Z,101170.30
2019-03-06T21:34:09.857Z,101172.05
2019-03-06T21:36:40.793Z,101175.21
2019-03-06T21:39:24.166Z,101181.42
2019-03-06T21:41:54.930Z,101166.63
2019-03-06T21:44:25.621Z,101170.23
2019-03-06T21:46:56.408Z,101169.19
2019-03-06T21:49:28.130Z,101167.10
2019-03-06T21:51:58.736Z,101163.20
2019-03-06T21:54:29.026Z,101169.70
2019-03-06T21:57:01.188Z,101178.84
2019-03-06T21:59:32.245Z,101180.49
2019-03-06T22:02:03.074Z,101183.18
2019-03-06T22:04:34.043Z,101189.80
2019-03-06T22:07:05.391Z,101195.72
2019-03-06T22:09:36.284Z,101205.16
2019-03-06T22:12:06.973Z,101222.91
2019-03-06T22:14:37.613Z,101228.34
2019-03-06T22:17:09.354Z,101242.80
2019-03-06T22:19:40.194Z,101240.59
2019-03-06T22:22:12.102Z,101242.39
2019-03-06T22:24:42.670Z,101247.37
2019-03-06T22:27:13.596Z,101254.42
2019-03-06T22:29:45.781Z,101256.34
2019-03-06T22:32:16.272Z,101253.63
2019-03-06T22:34:47.060Z,101253.89
2019-03-06T22:37:17.797Z,101259.14
2019-03-06T22:39:48.304Z,101274.00
2019-03-06T22:42:18.906Z,101285.94
2019-03-06T22:44:49.673Z,101287.73
2019-03-06T22:47:21.407Z,101296.20
2019-03-06T22:49:52.111Z,101303.83
2019-03-06T22:52:22.645Z,101302.05
2019-03-06T22:54:53.009Z,101310.63
2019-03-06T22:57:24.414Z,101301.16
2019-03-06T22:59:54.677Z,101299.73
2019-03-06T23:02:26.246Z,101298.90
2019-03-06T23:04:57.962Z,101291.12
2019-03-06T23:07:28.567Z,101286.45
2019-03-06T23:09:59.586Z,101293.88
2019-03-06T23:12:31.695Z,101301.11
2019-03-06T23:15:02.142Z,101303.39
2019-03-06T23:17:32.368Z,101299.12
2019-03-06T23:20:03.316Z,101304.10
2019-03-06T23:22:33.996Z,101310.38
2019-03-06T23:25:04.370Z,101302.88
2019-03-06T23:27:35.010Z,101307.69
2019-03-06T23:30:09.809Z,101311.52
2019-03-06T23:32:40.438Z,101312.59
2019-03-06T23:35:11.744Z,101312.86
2019-03-06T23:37:42.243Z,101305.08
2019-03-06T23:40:13.102Z,101310.73
2019-03-06T23:42:43.887Z,101313.76
2019-03-06T23:45:14.735Z,101314.66
2019-03-06T23:47:45.451Z,101315.59
2019-03-06T23:50:16.899Z,101324.31
2019-03-06T23:53:15.557Z,101336.45
2019-03-06T23:55:46.761Z,101346.01
2019-03-06T23:58:17.688Z,101346.55
